sensor_id;sensor_type;location;lat;lon;timestamp;pressure;altitude;pressure_sealevel;temperature;humidity
68107;BME280;54892;47.488;19.026;2022-07-10T00:00:36;100027.63;;;20.95;46.53
68107;BME280;54892;47.488;19.026;2022-07-10T00:03:39;100022.12;;;20.92;46.84
68107;BME280;54892;47.488;19.026;2022-07-10T00:06:45;100029.56;;;20.86;47.30
68107;BME280;54892;47.488;19.026;2022-07-10T00:09:51;100022.12;;;20.92;47.54
68107;BME280;54892;47.488;19.026;2022-07-10T00:12:55;100018.44;;;20.66;48.75
68107;BME280;54892;47.488;19.026;2022-07-10T00:15:58;100021.75;;;20.63;48.99
68107;BME280;54892;47.488;19.026;2022-07-10T00:19:05;100014.03;;;20.62;49.78
68107;BME280;54892;47.488;19.026;2022-07-10T00:22:08;100015.97;;;20.52;51.45
68107;BME280;54892;47.488;19.026;2022-07-10T00:25:13;100008.47;;;20.37;52.40
68107;BME280;54892;47.488;19.026;2022-07-10T00:28:19;100009.72;;;20.39;52.29
68107;BME280;54892;47.488;19.026;2022-07-10T00:31:22;100009.13;;;20.25;52.68
68107;BME280;54892;47.488;19.026;2022-07-10T00:34:25;100013.69;;;20.24;52.55
68107;BME280;54892;47.488;19.026;2022-07-10T00:37:29;100011.66;;;20.21;52.41
68107;BME280;54892;47.488;19.026;2022-07-10T00:40:33;100010.88;;;20.21;52.20
68107;BME280;54892;47.488;19.026;2022-07-10T00:43:51;100007.41;;;20.20;52.21
68107;BME280;54892;47.488;19.026;2022-07-10T00:46:55;100015.47;;;20.12;52.37
68107;BME280;54892;47.488;19.026;2022-07-10T00:49:59;100005.72;;;20.07;52.49
68107;BME280;54892;47.488;19.026;2022-07-10T00:53:02;100004.62;;;20.08;52.60
68107;BME280;54892;47.488;19.026;2022-07-10T00:56:08;99995.44;;;20.09;52.68
68107;BME280;54892;47.488;19.026;2022-07-10T00:59:12;99995.50;;;19.91;53.25
68107;BME280;54892;47.488;19.026;2022-07-10T01:02:16;100001.59;;;20.10;52.89
68107;BME280;54892;47.488;19.026;2022-07-10T01:05:20;99997.22;;;20.05;53.13
68107;BME280;54892;47.488;19.026;2022-07-10T01:08:23;99999.56;;;20.06;53.05
68107;BME280;54892;47.488;19.026;2022-07-10T01:11:29;100000.84;;;20.00;53.18
68107;BME280;54892;47.488;19.026;2022-07-10T01:14:33;99999.56;;;19.80;53.73
68107;BME280;54892;47.488;19.026;2022-07-10T01:17:37;99992.81;;;19.74;53.82
68107;BME280;54892;47.488;19.026;2022-07-10T01:20:41;99990.91;;;19.92;53.42
68107;BME280;54892;47.488;19.026;2022-07-10T01:23:46;99985.25;;;19.85;53.62
68107;BME280;54892;47.488;19.026;2022-07-10T01:26:49;99984.16;;;19.77;53.78
68107;BME280;54892;47.488;19.026;2022-07-10T01:29:53;99983.50;;;19.80;53.76
68107;BME280;54892;47.488;19.026;2022-07-10T01:32:56;99987.00;;;19.72;54.10
68107;BME280;54892;47.488;19.026;2022-07-10T01:36:04;99981.16;;;19.70;54.37
68107;BME280;54892;47.488;19.026;2022-07-10T01:39:08;99981.66;;;19.54;55.16
68107;BME280;54892;47.488;19.026;2022-07-10T01:42:14;99974.09;;;19.56;55.12
68107;BME280;54892;47.488;19.026;2022-07-10T01:45:18;99974.38;;;19.72;54.87
68107;BME280;54892;47.488;19.026;2022-07-10T01:48:21;99965.56;;;19.63;55.45
68107;BME280;54892;47.488;19.026;2022-07-10T01:51:25;99961.31;;;19.62;55.44
68107;BME280;54892;47.488;19.026;2022-07-10T01:54:29;99964.78;;;19.62;55.46
68107;BME280;54892;47.488;19.026;2022-07-10T01:57:33;99956.78;;;19.54;55.47
68107;BME280;54892;47.488;19.026;2022-07-10T02:00:36;99948.09;;;19.48;55.60
68107;BME280;54892;47.488;19.026;2022-07-10T02:03:40;99949.84;;;19.44;55.61
68107;BME280;54892;47.488;19.026;2022-07-10T02:07:00;99952.06;;;19.42;55.67
68107;BME280;54892;47.488;19.026;2022-07-10T02:10:09;99958.34;;;19.28;56.35
68107;BME280;54892;47.488;19.026;2022-07-10T02:13:12;99951.44;;;19.36;56.24
68107;BME280;54892;47.488;19.026;2022-07-10T02:16:16;99956.44;;;19.29;56.73
68107;BME280;54892;47.488;19.026;2022-07-10T02:19:20;99951.72;;;19.17;57.01
68107;BME280;54892;47.488;19.026;2022-07-10T02:22:23;99944.97;;;19.20;56.97
68107;BME280;54892;47.488;19.026;2022-07-10T02:25:27;99937.91;;;19.15;57.24
68107;BME280;54892;47.488;19.026;2022-07-10T02:28:31;99941.50;;;19.10;57.47
68107;BME280;54892;47.488;19.026;2022-07-10T02:31:34;99947.47;;;19.16;57.35
68107;BME280;54892;47.488;19.026;2022-07-10T02:34:42;99955.03;;;19.14;57.43
68107;BME280;54892;47.488;19.026;2022-07-10T02:37:46;99954.25;;;19.22;57.43
68107;BME280;54892;47.488;19.026;2022-07-10T02:40:51;99958.66;;;19.18;57.58
68107;BME280;54892;47.488;19.026;2022-07-10T02:43:55;99945.44;;;19.04;58.06
68107;BME280;54892;47.488;19.026;2022-07-10T02:46:58;99951.25;;;19.06;58.21
68107;BME280;54892;47.488;19.026;2022-07-10T02:50:01;99960.69;;;19.04;58.40
68107;BME280;54892;47.488;19.026;2022-07-10T02:53:06;99941.75;;;18.91;58.86
68107;BME280;54892;47.488;19.026;2022-07-10T02:56:10;99943.16;;;18.80;59.43
68107;BME280;54892;47.488;19.026;2022-07-10T02:59:14;99940.63;;;18.75;59.59
68107;BME280;54892;47.488;19.026;2022-07-10T03:02:18;99940.44;;;18.62;60.05
68107;BME280;54892;47.488;19.026;2022-07-10T03:05:21;99941.06;;;18.59;60.20
68107;BME280;54892;47.488;19.026;2022-07-10T03:08:25;99944.78;;;18.40;60.86
68107;BME280;54892;47.488;19.026;2022-07-10T03:11:29;99947.25;;;18.28;61.39
68107;BME280;54892;47.488;19.026;2022-07-10T03:14:33;99949.78;;;18.33;61.23
68107;BME280;54892;47.488;19.026;2022-07-10T03:17:36;99956.56;;;18.39;61.01
68107;BME280;54892;47.488;19.026;2022-07-10T03:20:39;99946.06;;;18.43;61.03
68107;BME280;54892;47.488;19.026;2022-07-10T03:23:43;99953.50;;;18.23;61.47
68107;BME280;54892;47.488;19.026;2022-07-10T03:26:47;99951.62;;;18.24;61.80
68107;BME280;54892;47.488;19.026;2022-07-10T03:29:51;99945.78;;;18.22;61.87
68107;BME280;54892;47.488;19.026;2022-07-10T03:32:54;99930.94;;;18.38;61.38
68107;BME280;54892;47.488;19.026;2022-07-10T03:35:57;99933.88;;;18.28;61.88
68107;BME280;54892;47.488;19.026;2022-07-10T03:39:03;99927.75;;;18.28;61.91
68107;BME280;54892;47.488;19.026;2022-07-10T03:42:10;99923.69;;;18.30;61.77
68107;BME280;54892;47.488;19.026;2022-07-10T03:45:13;99925.41;;;18.35;61.72
68107;BME280;54892;47.488;19.026;2022-07-10T03:48:16;99920.72;;;18.40;61.61
68107;BME280;54892;47.488;19.026;2022-07-10T03:51:19;99912.56;;;18.46;61.47
68107;BME280;54892;47.488;19.026;2022-07-10T03:54:23;99916.34;;;18.45;61.59
68107;BME280;54892;47.488;19.026;2022-07-10T03:57:27;99908.44;;;18.39;61.82
68107;BME280;54892;47.488;19.026;2022-07-10T04:00:48;99914.25;;;18.33;62.01
68107;BME280;54892;47.488;19.026;2022-07-10T04:03:51;99914.25;;;18.33;62.04
68107;BME280;54892;47.488;19.026;2022-07-10T04:06:54;99924.22;;;18.50;61.56
68107;BME280;54892;47.488;19.026;2022-07-10T04:09:58;99915.31;;;18.81;60.41
68107;BME280;54892;47.488;19.026;2022-07-10T04:13:04;99922.41;;;19.65;57.72
68107;BME280;54892;47.488;19.026;2022-07-10T04:16:07;99918.47;;;19.71;57.02
68107;BME280;54892;47.488;19.026;2022-07-10T04:19:14;99918.66;;;19.48;57.74
68107;BME280;54892;47.488;19.026;2022-07-10T04:22:17;99916.03;;;19.30;58.26
68107;BME280;54892;47.488;19.026;2022-07-10T04:25:21;99913.34;;;19.22;58.66
68107;BME280;54892;47.488;19.026;2022-07-10T04:28:25;99911.44;;;19.13;59.01
68107;BME280;54892;47.488;19.026;2022-07-10T04:31:29;99905.47;;;19.16;59.05
68107;BME280;54892;47.488;19.026;2022-07-10T04:34:33;99898.53;;;19.07;59.42
68107;BME280;54892;47.488;19.026;2022-07-10T04:37:36;99896.34;;;19.00;59.78
68107;BME280;54892;47.488;19.026;2022-07-10T04:40:40;99900.13;;;19.08;59.75
68107;BME280;54892;47.488;19.026;2022-07-10T04:43:45;99898.22;;;18.99;60.06
68107;BME280;54892;47.488;19.026;2022-07-10T04:46:48;99896.00;;;19.01;60.09
68107;BME280;54892;47.488;19.026;2022-07-10T04:49:51;99895.72;;;19.12;59.87
68107;BME280;54892;47.488;19.026;2022-07-10T04:52:54;99893.75;;;18.86;60.49
68107;BME280;54892;47.488;19.026;2022-07-10T04:55:58;99890.34;;;18.94;60.38
68107;BME280;54892;47.488;19.026;2022-07-10T04:59:02;99884.38;;;18.97;60.36
68107;BME280;54892;47.488;19.026;2022-07-10T05:02:06;99879.78;;;18.89;60.53
68107;BME280;54892;47.488;19.026;2022-07-10T05:05:10;99882.00;;;18.96;60.51
68107;BME280;54892;47.488;19.026;2022-07-10T05:08:13;99894.28;;;19.14;59.86
68107;BME280;54892;47.488;19.026;2022-07-10T05:11:16;99883.22;;;19.60;58.55
68107;BME280;54892;47.488;19.026;2022-07-10T05:14:22;99886.06;;;20.11;56.73
68107;BME280;54892;47.488;19.026;2022-07-10T05:17:27;99878.34;;;20.39;55.85
68107;BME280;54892;47.488;19.026;2022-07-10T05:20:31;99889.19;;;20.73;54.77
68107;BME280;54892;47.488;19.026;2022-07-10T05:23:35;99889.97;;;20.52;55.31
68107;BME280;54892;47.488;19.026;2022-07-10T05:26:39;99892.59;;;20.31;55.73
68107;BME280;54892;47.488;19.026;2022-07-10T05:29:43;99896.19;;;19.97;56.66
68107;BME280;54892;47.488;19.026;2022-07-10T05:32:48;99887.75;;;19.77;57.24
68107;BME280;54892;47.488;19.026;2022-07-10T05:35:51;99891.66;;;19.80;57.31
68107;BME280;54892;47.488;19.026;2022-07-10T05:38:55;99890.94;;;19.61;57.77
68107;BME280;54892;47.488;19.026;2022-07-10T05:41:59;99889.69;;;19.50;57.93
68107;BME280;54892;47.488;19.026;2022-07-10T05:45:05;99882.94;;;19.44;58.10
68107;BME280;54892;47.488;19.026;2022-07-10T05:48:08;99890.00;;;19.57;57.80
68107;BME280;54892;47.488;19.026;2022-07-10T05:51:13;99877.09;;;19.59;57.84
68107;BME280;54892;47.488;19.026;2022-07-10T05:54:38;99878.00;;;19.55;57.69
68107;BME280;54892;47.488;19.026;2022-07-10T05:57:42;99879.44;;;19.61;57.31
68107;BME280;54892;47.488;19.026;2022-07-10T06:00:49;99884.81;;;19.43;57.67
68107;BME280;54892;47.488;19.026;2022-07-10T06:03:53;99878.19;;;19.50;57.66
68107;BME280;54892;47.488;19.026;2022-07-10T06:06:59;99879.41;;;19.70;57.34
68107;BME280;54892;47.488;19.026;2022-07-10T06:10:02;99886.19;;;19.76;57.26
68107;BME280;54892;47.488;19.026;2022-07-10T06:13:06;99878.78;;;19.64;57.56
68107;BME280;54892;47.488;19.026;2022-07-10T06:16:11;99883.50;;;19.76;57.49
68107;BME280;54892;47.488;19.026;2022-07-10T06:19:15;99887.13;;;19.71;57.31
68107;BME280;54892;47.488;19.026;2022-07-10T06:22:19;99867.59;;;19.71;57.05
68107;BME280;54892;47.488;19.026;2022-07-10T06:25:34;99880.78;;;19.85;56.66
68107;BME280;54892;47.488;19.026;2022-07-10T06:28:38;99878.41;;;19.83;56.07
68107;BME280;54892;47.488;19.026;2022-07-10T06:31:43;99887.88;;;19.98;55.41
68107;BME280;54892;47.488;19.026;2022-07-10T06:34:46;99899.44;;;20.11;54.78
68107;BME280;54892;47.488;19.026;2022-07-10T06:37:49;99892.09;;;20.08;54.29
68107;BME280;54892;47.488;19.026;2022-07-10T06:40:53;99897.25;;;20.13;53.51
68107;BME280;54892;47.488;19.026;2022-07-10T06:43:57;99895.50;;;20.17;53.11
68107;BME280;54892;47.488;19.026;2022-07-10T06:47:05;99892.66;;;20.22;52.60
68107;BME280;54892;47.488;19.026;2022-07-10T06:50:28;99897.81;;;20.28;51.06
68107;BME280;54892;47.488;19.026;2022-07-10T06:53:33;99899.97;;;20.34;51.36
68107;BME280;54892;47.488;19.026;2022-07-10T06:56:36;99899.81;;;20.39;51.53
68107;BME280;54892;47.488;19.026;2022-07-10T06:59:40;99887.59;;;20.51;50.34
68107;BME280;54892;47.488;19.026;2022-07-10T07:02:45;99892.25;;;20.63;48.54
68107;BME280;54892;47.488;19.026;2022-07-10T07:05:48;99890.53;;;20.88;48.06
68107;BME280;54892;47.488;19.026;2022-07-10T07:08:52;99884.75;;;21.20;47.03
68107;BME280;54892;47.488;19.026;2022-07-10T07:11:55;99892.69;;;21.96;45.16
68107;BME280;54892;47.488;19.026;2022-07-10T07:14:59;99895.94;;;23.04;43.15
68107;BME280;54892;47.488;19.026;2022-07-10T07:18:04;99893.53;;;24.20;40.37
68107;BME280;54892;47.488;19.026;2022-07-10T07:21:13;99888.63;;;25.17;38.08
68107;BME280;54892;47.488;19.026;2022-07-10T07:24:33;99894.97;;;26.18;36.01
68107;BME280;54892;47.488;19.026;2022-07-10T07:27:38;99892.47;;;26.89;35.21
68107;BME280;54892;47.488;19.026;2022-07-10T07:30:41;99893.56;;;27.57;33.46
68107;BME280;54892;47.488;19.026;2022-07-10T07:33:46;99898.38;;;28.23;32.49
68107;BME280;54892;47.488;19.026;2022-07-10T07:36:50;99898.91;;;28.47;31.79
68107;BME280;54892;47.488;19.026;2022-07-10T07:39:53;99893.69;;;28.90;30.34
68107;BME280;54892;47.488;19.026;2022-07-10T07:42:57;99893.00;;;29.29;29.98
68107;BME280;54892;47.488;19.026;2022-07-10T07:46:01;99894.09;;;28.99;29.54
68107;BME280;54892;47.488;19.026;2022-07-10T07:49:06;99901.91;;;29.23;29.50
68107;BME280;54892;47.488;19.026;2022-07-10T07:52:09;99904.69;;;29.44;29.07
68107;BME280;54892;47.488;19.026;2022-07-10T07:55:13;99891.50;;;29.79;28.89
68107;BME280;54892;47.488;19.026;2022-07-10T07:58:18;99898.50;;;29.47;28.39
68107;BME280;54892;47.488;19.026;2022-07-10T08:01:21;99902.34;;;29.32;28.82
68107;BME280;54892;47.488;19.026;2022-07-10T08:04:27;99890.66;;;29.24;28.49
68107;BME280;54892;47.488;19.026;2022-07-10T08:07:34;99907.78;;;29.36;28.96
68107;BME280;54892;47.488;19.026;2022-07-10T08:10:38;99893.31;;;28.99;30.06
68107;BME280;54892;47.488;19.026;2022-07-10T08:13:45;99900.72;;;28.24;30.73
68107;BME280;54892;47.488;19.026;2022-07-10T08:16:48;99896.81;;;28.22;30.73
68107;BME280;54892;47.488;19.026;2022-07-10T08:19:54;99893.47;;;28.47;30.52
68107;BME280;54892;47.488;19.026;2022-07-10T08:22:57;99894.56;;;28.38;30.24
68107;BME280;54892;47.488;19.026;2022-07-10T08:26:01;99900.09;;;27.97;30.78
68107;BME280;54892;47.488;19.026;2022-07-10T08:29:05;99893.31;;;27.73;32.06
68107;BME280;54892;47.488;19.026;2022-07-10T08:32:08;99893.91;;;27.14;31.45
68107;BME280;54892;47.488;19.026;2022-07-10T08:35:14;99892.44;;;26.86;33.13
68107;BME280;54892;47.488;19.026;2022-07-10T08:38:16;99893.59;;;26.27;34.22
68107;BME280;54892;47.488;19.026;2022-07-10T08:41:22;99896.50;;;26.15;33.94
68107;BME280;54892;47.488;19.026;2022-07-10T08:44:28;99889.34;;;25.80;34.56
68107;BME280;54892;47.488;19.026;2022-07-10T08:47:34;99886.03;;;25.90;34.82
68107;BME280;54892;47.488;19.026;2022-07-10T08:50:44;99893.84;;;25.49;33.90
68107;BME280;54892;47.488;19.026;2022-07-10T08:53:51;99894.44;;;24.99;35.00
68107;BME280;54892;47.488;19.026;2022-07-10T08:56:56;99885.19;;;25.20;34.30
68107;BME280;54892;47.488;19.026;2022-07-10T08:59:59;99888.34;;;25.02;35.36
68107;BME280;54892;47.488;19.026;2022-07-10T09:03:03;99885.91;;;24.97;36.36
68107;BME280;54892;47.488;19.026;2022-07-10T09:06:07;99888.72;;;24.65;35.12
68107;BME280;54892;47.488;19.026;2022-07-10T09:09:10;99882.13;;;24.27;36.31
68107;BME280;54892;47.488;19.026;2022-07-10T09:12:14;99869.06;;;24.29;37.03
68107;BME280;54892;47.488;19.026;2022-07-10T09:15:18;99887.19;;;24.12;37.75
68107;BME280;54892;47.488;19.026;2022-07-10T09:18:23;99882.91;;;23.95;37.34
68107;BME280;54892;47.488;19.026;2022-07-10T09:21:32;99888.03;;;24.16;37.14
68107;BME280;54892;47.488;19.026;2022-07-10T09:24:38;99881.00;;;24.12;35.79
68107;BME280;54892;47.488;19.026;2022-07-10T09:27:50;99875.16;;;23.94;36.65
68107;BME280;54892;47.488;19.026;2022-07-10T09:30:54;99881.47;;;23.98;36.69
68107;BME280;54892;47.488;19.026;2022-07-10T09:33:57;99887.34;;;24.20;36.17
68107;BME280;54892;47.488;19.026;2022-07-10T09:37:24;99878.03;;;24.17;36.11
68107;BME280;54892;47.488;19.026;2022-07-10T09:40:29;99881.94;;;23.71;36.70
68107;BME280;54892;47.488;19.026;2022-07-10T09:43:43;99859.69;;;23.91;36.89
68107;BME280;54892;47.488;19.026;2022-07-10T09:46:47;99870.38;;;23.87;36.68
68107;BME280;54892;47.488;19.026;2022-07-10T09:49:50;99879.28;;;24.04;36.68
68107;BME280;54892;47.488;19.026;2022-07-10T09:52:56;99882.88;;;24.43;36.44
68107;BME280;54892;47.488;19.026;2022-07-10T09:56:00;99868.50;;;24.39;35.99
68107;BME280;54892;47.488;19.026;2022-07-10T09:59:08;99866.69;;;24.43;35.37
68107;BME280;54892;47.488;19.026;2022-07-10T10:02:12;99867.22;;;24.33;35.52
68107;BME280;54892;47.488;19.026;2022-07-10T10:05:19;99859.28;;;24.40;35.78
68107;BME280;54892;47.488;19.026;2022-07-10T10:08:25;99854.22;;;24.39;35.22
68107;BME280;54892;47.488;19.026;2022-07-10T10:11:32;99837.12;;;24.31;35.78
68107;BME280;54892;47.488;19.026;2022-07-10T10:14:38;99837.00;;;24.08;36.21
68107;BME280;54892;47.488;19.026;2022-07-10T10:17:44;99837.41;;;24.26;36.32
68107;BME280;54892;47.488;19.026;2022-07-10T10:20:50;99848.63;;;24.47;34.27
68107;BME280;54892;47.488;19.026;2022-07-10T10:23:54;99837.72;;;24.40;33.85
68107;BME280;54892;47.488;19.026;2022-07-10T10:26:58;99829.31;;;24.45;34.34
68107;BME280;54892;47.488;19.026;2022-07-10T10:30:03;99828.06;;;24.59;32.85
68107;BME280;54892;47.488;19.026;2022-07-10T10:33:44;99823.44;;;24.75;33.18
68107;BME280;54892;47.488;19.026;2022-07-10T10:36:49;99815.72;;;24.58;33.65
68107;BME280;54892;47.488;19.026;2022-07-10T10:39:54;99820.97;;;24.51;33.44
68107;BME280;54892;47.488;19.026;2022-07-10T10:43:15;99809.47;;;24.54;32.61
68107;BME280;54892;47.488;19.026;2022-07-10T10:46:23;99816.56;;;24.62;32.18
68107;BME280;54892;47.488;19.026;2022-07-10T10:49:48;99795.81;;;24.66;31.51
68107;BME280;54892;47.488;19.026;2022-07-10T10:53:00;99812.19;;;24.73;32.08
68107;BME280;54892;47.488;19.026;2022-07-10T10:56:24;99809.78;;;24.88;32.79
68107;BME280;54892;47.488;19.026;2022-07-10T10:59:44;99813.75;;;24.74;31.33
68107;BME280;54892;47.488;19.026;2022-07-10T11:02:47;99807.94;;;24.72;31.72
68107;BME280;54892;47.488;19.026;2022-07-10T11:05:51;99808.97;;;24.68;31.55
68107;BME280;54892;47.488;19.026;2022-07-10T11:08:58;99801.94;;;24.63;31.90
68107;BME280;54892;47.488;19.026;2022-07-10T11:12:05;99800.53;;;24.69;32.04
68107;BME280;54892;47.488;19.026;2022-07-10T11:15:13;99797.25;;;24.60;32.53
68107;BME280;54892;47.488;19.026;2022-07-10T11:18:19;99797.47;;;24.51;31.92
68107;BME280;54892;47.488;19.026;2022-07-10T11:21:24;99794.25;;;24.65;31.95
68107;BME280;54892;47.488;19.026;2022-07-10T11:24:45;99790.94;;;24.72;32.20
68107;BME280;54892;47.488;19.026;2022-07-10T11:28:08;99796.13;;;24.81;32.79
68107;BME280;54892;47.488;19.026;2022-07-10T11:31:11;99807.91;;;24.92;32.48
68107;BME280;54892;47.488;19.026;2022-07-10T11:34:16;99803.87;;;24.82;32.08
68107;BME280;54892;47.488;19.026;2022-07-10T11:37:19;99812.47;;;24.88;31.76
68107;BME280;54892;47.488;19.026;2022-07-10T11:40:24;99826.72;;;24.69;32.30
68107;BME280;54892;47.488;19.026;2022-07-10T11:43:29;99812.72;;;24.63;32.73
68107;BME280;54892;47.488;19.026;2022-07-10T11:46:35;99824.06;;;24.33;33.39
68107;BME280;54892;47.488;19.026;2022-07-10T11:49:44;99827.88;;;24.12;34.21
68107;BME280;54892;47.488;19.026;2022-07-10T11:52:50;99820.63;;;24.16;34.75
68107;BME280;54892;47.488;19.026;2022-07-10T11:55:55;99817.94;;;24.16;34.54
68107;BME280;54892;47.488;19.026;2022-07-10T11:59:02;99821.78;;;24.35;33.95
68107;BME280;54892;47.488;19.026;2022-07-10T12:02:06;99821.84;;;24.19;33.76
68107;BME280;54892;47.488;19.026;2022-07-10T12:05:29;99816.38;;;23.83;33.60
68107;BME280;54892;47.488;19.026;2022-07-10T12:08:42;99817.63;;;23.70;33.32
68107;BME280;54892;47.488;19.026;2022-07-10T12:11:58;99820.31;;;23.70;32.66
68107;BME280;54892;47.488;19.026;2022-07-10T12:15:03;99824.81;;;23.82;33.21
68107;BME280;54892;47.488;19.026;2022-07-10T12:18:09;99822.81;;;23.95;32.70
68107;BME280;54892;47.488;19.026;2022-07-10T12:21:18;99832.97;;;24.17;31.14
68107;BME280;54892;47.488;19.026;2022-07-10T12:24:21;99822.81;;;24.11;30.93
68107;BME280;54892;47.488;19.026;2022-07-10T12:27:40;99828.81;;;24.20;30.19
68107;BME280;54892;47.488;19.026;2022-07-10T12:30:46;99819.16;;;24.03;30.46
68107;BME280;54892;47.488;19.026;2022-07-10T12:33:51;99821.25;;;23.94;31.17
68107;BME280;54892;47.488;19.026;2022-07-10T12:36:56;99835.09;;;24.08;31.08
68107;BME280;54892;47.488;19.026;2022-07-10T12:40:00;99827.00;;;24.08;31.08
68107;BME280;54892;47.488;19.026;2022-07-10T12:43:03;99825.69;;;24.18;31.54
68107;BME280;54892;47.488;19.026;2022-07-10T12:46:10;99823.06;;;24.22;31.99
68107;BME280;54892;47.488;19.026;2022-07-10T12:49:13;99829.94;;;24.39;32.43
68107;BME280;54892;47.488;19.026;2022-07-10T12:52:21;99835.41;;;24.23;33.12
68107;BME280;54892;47.488;19.026;2022-07-10T12:55:34;99837.78;;;24.08;33.29
68107;BME280;54892;47.488;19.026;2022-07-10T12:58:43;99829.97;;;24.03;33.26
68107;BME280;54892;47.488;19.026;2022-07-10T13:01:48;99840.03;;;24.06;32.50
68107;BME280;54892;47.488;19.026;2022-07-10T13:04:52;99842.16;;;24.32;32.42
68107;BME280;54892;47.488;19.026;2022-07-10T13:08:06;99862.25;;;24.35;31.56
68107;BME280;54892;47.488;19.026;2022-07-10T13:11:10;99854.03;;;24.28;30.93
68107;BME280;54892;47.488;19.026;2022-07-10T13:14:13;99848.44;;;24.21;30.93
68107;BME280;54892;47.488;19.026;2022-07-10T13:17:18;99848.75;;;23.99;31.72
68107;BME280;54892;47.488;19.026;2022-07-10T13:20:21;99842.94;;;23.97;32.00
68107;BME280;54892;47.488;19.026;2022-07-10T13:23:24;99855.34;;;24.02;32.66
68107;BME280;54892;47.488;19.026;2022-07-10T13:26:28;99843.09;;;24.05;31.43
68107;BME280;54892;47.488;19.026;2022-07-10T13:29:32;99838.47;;;23.89;32.33
68107;BME280;54892;47.488;19.026;2022-07-10T13:32:38;99840.91;;;23.94;32.53
68107;BME280;54892;47.488;19.026;2022-07-10T13:35:41;99844.38;;;23.95;32.69
68107;BME280;54892;47.488;19.026;2022-07-10T13:38:46;99844.06;;;23.80;33.01
68107;BME280;54892;47.488;19.026;2022-07-10T13:41:51;99841.19;;;23.89;32.32
68107;BME280;54892;47.488;19.026;2022-07-10T13:44:55;99838.12;;;23.91;31.20
68107;BME280;54892;47.488;19.026;2022-07-10T13:47:59;99835.25;;;23.83;30.85
68107;BME280;54892;47.488;19.026;2022-07-10T13:51:03;99837.34;;;23.74;31.02
68107;BME280;54892;47.488;19.026;2022-07-10T13:54:08;99836.13;;;23.39;31.21
68107;BME280;54892;47.488;19.026;2022-07-10T13:57:11;99835.53;;;23.46;31.50
68107;BME280;54892;47.488;19.026;2022-07-10T14:00:15;99836.22;;;23.43;30.80
68107;BME280;54892;47.488;19.026;2022-07-10T14:03:20;99832.38;;;23.44;31.42
68107;BME280;54892;47.488;19.026;2022-07-10T14:06:23;99831.69;;;23.47;31.83
68107;BME280;54892;47.488;19.026;2022-07-10T14:09:27;99836.16;;;23.71;30.64
68107;BME280;54892;47.488;19.026;2022-07-10T14:12:31;99829.81;;;23.64;30.53
68107;BME280;54892;47.488;19.026;2022-07-10T14:15:34;99815.59;;;23.67;30.13
68107;BME280;54892;47.488;19.026;2022-07-10T14:18:39;99824.22;;;23.88;30.24
68107;BME280;54892;47.488;19.026;2022-07-10T14:21:44;99824.28;;;23.92;30.10
68107;BME280;54892;47.488;19.026;2022-07-10T14:24:47;99836.16;;;24.04;30.19
68107;BME280;54892;47.488;19.026;2022-07-10T14:27:51;99838.88;;;23.91;29.63
68107;BME280;54892;47.488;19.026;2022-07-10T14:30:54;99845.84;;;23.92;29.36
68107;BME280;54892;47.488;19.026;2022-07-10T14:34:04;99840.66;;;23.99;28.58
68107;BME280;54892;47.488;19.026;2022-07-10T14:37:07;99830.22;;;23.82;28.15
68107;BME280;54892;47.488;19.026;2022-07-10T14:40:11;99828.81;;;23.72;28.08
68107;BME280;54892;47.488;19.026;2022-07-10T14:43:14;99828.22;;;23.79;28.10
68107;BME280;54892;47.488;19.026;2022-07-10T14:46:18;99824.06;;;23.65;28.16
68107;BME280;54892;47.488;19.026;2022-07-10T14:49:24;99836.03;;;23.68;27.62
68107;BME280;54892;47.488;19.026;2022-07-10T14:52:27;99845.78;;;23.72;27.64
68107;BME280;54892;47.488;19.026;2022-07-10T14:55:33;99841.63;;;23.75;28.36
68107;BME280;54892;47.488;19.026;2022-07-10T14:58:37;99855.09;;;23.75;28.30
68107;BME280;54892;47.488;19.026;2022-07-10T15:01:58;99854.28;;;23.75;28.45
68107;BME280;54892;47.488;19.026;2022-07-10T15:05:02;99861.25;;;23.60;28.35
68107;BME280;54892;47.488;19.026;2022-07-10T15:08:06;99863.50;;;23.41;29.01
68107;BME280;54892;47.488;19.026;2022-07-10T15:11:09;99876.09;;;23.53;29.15
68107;BME280;54892;47.488;19.026;2022-07-10T15:14:12;99873.00;;;23.67;28.47
68107;BME280;54892;47.488;19.026;2022-07-10T15:17:16;99876.72;;;23.63;28.38
68107;BME280;54892;47.488;19.026;2022-07-10T15:20:20;99870.25;;;23.51;28.43
68107;BME280;54892;47.488;19.026;2022-07-10T15:23:23;99862.22;;;23.67;27.82
68107;BME280;54892;47.488;19.026;2022-07-10T15:26:27;99874.88;;;23.67;28.04
68107;BME280;54892;47.488;19.026;2022-07-10T15:29:31;99878.47;;;23.71;27.62
68107;BME280;54892;47.488;19.026;2022-07-10T15:32:34;99870.53;;;23.62;27.27
68107;BME280;54892;47.488;19.026;2022-07-10T15:35:40;99879.94;;;23.68;27.61
68107;BME280;54892;47.488;19.026;2022-07-10T15:38:44;99866.81;;;23.67;27.52
68107;BME280;54892;47.488;19.026;2022-07-10T15:41:47;99870.13;;;23.76;27.92
68107;BME280;54892;47.488;19.026;2022-07-10T15:44:50;99872.81;;;23.76;27.68
68107;BME280;54892;47.488;19.026;2022-07-10T15:47:54;99870.81;;;23.73;27.46
68107;BME280;54892;47.488;19.026;2022-07-10T15:50:59;99867.59;;;23.67;27.67
68107;BME280;54892;47.488;19.026;2022-07-10T15:54:02;99868.38;;;23.68;27.12
68107;BME280;54892;47.488;19.026;2022-07-10T15:57:05;99871.84;;;23.68;27.04
68107;BME280;54892;47.488;19.026;2022-07-10T16:00:10;99882.97;;;23.51;27.15
68107;BME280;54892;47.488;19.026;2022-07-10T16:03:14;99879.37;;;23.47;27.23
68107;BME280;54892;47.488;19.026;2022-07-10T16:06:19;99881.03;;;23.51;27.29
68107;BME280;54892;47.488;19.026;2022-07-10T16:09:23;99882.44;;;23.45;27.00